INFORMACIÓN METAR y TAF
METAR FOR LEBB
ADDS - METARS form results

(2008 UTC 29 November 2021)
Data provider http://aviationweather.gov/metar/data/
 
METAR text: LEBB 292000Z VRB02KT 5000 -RA BR SCT003 SCT008 BKN024 11/11 Q1023 RERA TEMPO 3000 -RA
Conditions at: LEBB (BILBAO/SONDICA , ES) observed 2000 UTC 29 November 2021
Temperature: 11.0°C (52°F)
Dewpoint: 11.0°C (52°F) [RH = 100%]
Pressure (altimeter): 30.21 inches Hg (1023.0 mb)
Winds: variable direction winds at 2 MPH (2 knots; 1.0 m/s)
Visibility: 3 miles ( 5 km)
Ceiling: 2400 feet AGL
Clouds: scattered clouds at 300 feet AGL
scattered clouds at 800 feet AGL
broken clouds at 2400 feet AGL
Weather: -RA BR  (light rain, mist)

METAR text: LEBB 291946Z VRB02KT 3600 -RA BR SCT003 SCT008 BKN022 11/11 Q1023 RERA TEMPO 6000 -RA
Conditions at: LEBB (BILBAO/SONDICA , ES) observed 1946 UTC 29 November 2021
Temperature: 11.0°C (52°F)
Dewpoint: 11.0°C (52°F) [RH = 100%]
Pressure (altimeter): 30.21 inches Hg (1023.0 mb)
Winds: variable direction winds at 2 MPH (2 knots; 1.0 m/s)
Visibility: 2.24 miles (3.60 km)
Ceiling: 2200 feet AGL
Clouds: scattered clouds at 300 feet AGL
scattered clouds at 800 feet AGL
broken clouds at 2200 feet AGL
Weather: -RA BR  (light rain, mist)

METAR text: LEBB 291930Z 27004KT 240V300 2000 RA BR SCT003 SCT008 BKN014 11/11 Q1022 TEMPO 6000 -RA
Conditions at: LEBB (BILBAO/SONDICA , ES) observed 1930 UTC 29 November 2021
Temperature: 11.0°C (52°F)
Dewpoint: 11.0°C (52°F) [RH = 100%]
Pressure (altimeter): 30.18 inches Hg (1022.0 mb)
Winds: from the W (270 degrees) at 5 MPH (4 knots; 2.1 m/s)
Visibility: 1.24 miles (2.00 km)
Ceiling: 1400 feet AGL
Clouds: scattered clouds at 300 feet AGL
scattered clouds at 800 feet AGL
broken clouds at 1400 feet AGL
Weather: RA BR  (moderate rain, mist)

Forecast for: LEBB (BILBAO/SONDICA , ES)
Text: TAF LEBB 291700Z 2918/3018 28008KT 6000 -RA SCT010 BKN020 TX14/3014Z TN07/3006Z
Forecast period: 1800 UTC 29 November 2021 to 1800 UTC 30 November 2021
Forecast type: FROM: standard forecast or significant change
Winds: from the W (280 degrees) at 9 MPH (8 knots; 4.1 m/s)
Visibility: 4 miles (6 km)
Ceiling: 2000 feet AGL
Clouds: scattered clouds at 1000 feet AGL
broken clouds at 2000 feet AGL
Weather: -RA  (light rain)
Text: TEMPO 2918/2924 3000 RA BKN010
Forecast period: 1800 UTC 29 November 2021 to 0000 UTC 30 November 2021
Forecast type: TEMPORARY: The following changes expected for less than half the time period
Visibility: 1.86 miles (2.99 km)
Ceiling: 1000 feet AGL
Clouds: broken clouds at 1000 feet AGL
Weather: RA  (moderate rain)
Text: PROB40 3000/3008 3000 -RA BR BKN010
Forecast period: 0000 to 0800 UTC 30 November 2021
Forecast type: PROBABLE: 40 percent likelihood of the following during this time
Visibility: 1.86 miles (2.99 km)
Ceiling: 1000 feet AGL
Clouds: broken clouds at 1000 feet AGL
Weather: -RA BR  (light rain, mist)

 MAPA DE AEROPUERTO

 INFORMACIÓN DE PISTA
Pista 10 Longitud 6562 ft Ancho 148 ft
Elevación 116 ft Umbral desplazado 0 ft Rumbo de pista 97
Pista 28 Longitud 6562 ft Ancho 148 ft
Elevación 129 ft Umbral desplazado 0 ft Rumbo de pista 277
Pista 12 Longitud 8530 ft Ancho 148 ft
Elevación 119 ft Umbral desplazado 0 ft Rumbo de pista 117
Pista 30 Longitud 8530 ft Ancho 148 ft
Elevación 128 ft Umbral desplazado 1509 ft Rumbo de pista 297

 FRECUANCIAS DEL AEROPUERTO
Tipo APP Nombre APP Frecuencia 120.7 MHZ
Tipo ATIS Nombre ATIS Frecuencia 118.825 MHZ
Tipo GND Nombre GND Frecuencia 121.7 MHZ
Tipo TWR Nombre TWR Frecuencia 118.5 MHZ

 RADIO AYUDAS DEL AEROPUERTO
Tipo VOR-DME Nombre Bilbao Frecuencia 115900 KHZ



Powered by Virtual Airlines Manager [v2.6.2]